Flight Track Log - Related Links

Times and Time Zones

All times are in EDT time to prevent confusion due to time zone crossing. See the SIL4017 flight status page for this flight to view local times or setup timezone preferences in your user account.

Time Position Orientation Groundspeed Altitude Reporting Facility
EDT Latitude Longitude Course Direction KTS MPH feet Rate Location/Type
Sat 08:54:30 AM 26.0750 -80.1367 99° East 147 169 600  Level Miami Center
Sat 08:59:21 AM 26.0403 -79.9000 101° East 177 204 5,900 1,094 Climbing Miami Center
Sat 09:00:21 AM 26.0311 -79.8464 97° East 177 204 7,000 1,050 Climbing Miami Center
Sat 09:01:21 AM 26.0258 -79.7978 99° East 177 204 8,000 1,000 Climbing Miami Center
Sat 09:02:21 AM 26.0183 -79.7444 97° East 172 198 9,000 1,000 Climbing Miami Center
Sat 09:03:21 AM 26.0131 -79.6933 98° East 167 192 10,000 950 Climbing Miami Center
Sat 09:04:21 AM 26.0058 -79.6378 99° East 167 192 10,900 900 Climbing Miami Center
Sat 09:05:21 AM 25.9986 -79.5844 101° East 167 192 11,800 850 Climbing Miami Center
Sat 09:06:21 AM 25.9892 -79.5311 101° East 167 192 12,600 800 Climbing Miami Center
Sat 09:07:21 AM 25.9794 -79.4778 101° East 167 192 13,400 800 Climbing Miami Center
Sat 09:08:21 AM 25.9700 -79.4219 96° East 173 199 14,200 750 Climbing Miami Center
Sat 09:09:21 AM 25.9647 -79.3664 106° East 173 199 14,900 700 Climbing Miami Center
Sat 09:10:21 AM 25.9511 -79.3131 101° East 178 205 15,600 650 Climbing Miami Center
Sat 09:11:21 AM 25.9417 -79.2575 101° East 183 211 16,200 600 Climbing Miami Center
Sat 09:12:21 AM 25.9319 -79.2017 98° East 183 211 16,800 400 Climbing Miami Center
Sat 09:13:21 AM 25.9244 -79.1439 101° East 183 211 17,000 50 Climbing Miami Center
Sat 09:14:21 AM 25.9131 -79.0767 102° East 196 226 16,900 -50 Descending Miami Center
Sat 09:15:21 AM 25.8994 -79.0072 102° East 217 250 16,900 50 Level Miami Center
Sat 09:16:21 AM 25.8839 -78.9258 104° East 231 266 17,000 50 Climbing Miami Center
Sat 09:17:21 AM 25.8681 -78.8542 99° East 237 273 17,000  Level Miami Center
Sat 09:18:21 AM 25.8567 -78.7778 101° East 244 281 17,000  Level Miami Center
Sat 09:19:21 AM 25.8431 -78.7014 100° East 244 281 17,000  Level Miami Center
Sat 09:20:21 AM 25.8314 -78.6250 104° East 244 281 17,000  Level Miami Center
Sat 09:21:21 AM 25.8136 -78.5486 98° East 244 281 17,000  Level Miami Center
Sat 09:22:21 AM 25.8039 -78.4722 101° East 244 281 17,000  Level Miami Center
Sat 09:23:21 AM 25.7900 -78.3936 101° East 244 281 17,000 -200 Level Miami Center
Sat 09:24:21 AM 25.7783 -78.3264 102° East 244 281 16,600 -450 Descending Miami Center
Sat 09:25:21 AM 25.7625 -78.2433 102° East 255 293 16,100 -850 Descending Miami Center
Sat 09:26:21 AM 25.7464 -78.1578 101° East 269 310 14,900 -1,350 Descending Miami Center
Sat 09:27:21 AM 25.7325 -78.0792 100° East 269 310 13,400 -1,500 Descending Miami Center
Sat 09:28:21 AM 25.7206 -78.0028 102° East 263 303 11,900 -1,500 Descending Miami Center
Sat 09:29:21 AM 25.7064 -77.9314 100° East 249 287 10,400 -1,400 Descending Miami Center
Sat 09:30:21 AM 25.6944 -77.8572 102° East 239 275 9,100 -950 Descending Miami Center
Sat 09:31:21 AM 25.6803 -77.7858 100° East 233 268 8,500 -650 Descending Miami Center
Sat 09:32:21 AM 25.6681 -77.7119 101° East 238 274 7,800 -700 Descending Miami Center
Sat 09:33:21 AM 25.6539 -77.6311 101° East 250 288 7,100 -700 Descending Miami Center

Login

Don't have an account? Register now (free) for customized features, flight alerts, and more!